createdAt,value
2018-10-21T00:01:20.027Z,6.83
2018-10-21T00:03:48.334Z,6.73
2018-10-21T00:06:17.229Z,6.87
2018-10-21T00:08:44.958Z,6.53
2018-10-21T00:11:13.838Z,6.33
2018-10-21T00:13:42.149Z,6.47
2018-10-21T00:16:10.460Z,6.40
2018-10-21T00:18:38.769Z,6.03
2018-10-21T00:21:06.527Z,5.90
2018-10-21T00:23:34.802Z,6.20
2018-10-21T00:26:04.283Z,6.33
2018-10-21T00:28:32.013Z,6.53
2018-10-21T00:31:00.326Z,6.97
2018-10-21T00:33:29.216Z,7.63
2018-10-21T00:35:58.513Z,7.73
2018-10-21T00:38:26.248Z,8.40
2018-10-21T00:40:54.573Z,9.23
2018-10-21T00:43:22.890Z,11.03
2018-10-21T00:45:51.209Z,11.40
2018-10-21T00:48:20.426Z,11.70
2018-10-21T00:50:50.651Z,8.83
2018-10-21T00:53:18.975Z,10.03
2018-10-21T00:55:46.728Z,9.37
2018-10-21T00:58:15.622Z,10.37
2018-10-21T01:00:43.938Z,10.50
2018-10-21T01:03:12.348Z,14.67
2018-10-21T01:05:40.586Z,11.07
2018-10-21T01:08:08.905Z,9.67
2018-10-21T01:10:36.644Z,8.53
2018-10-21T01:13:04.952Z,7.10
2018-10-21T01:15:33.853Z,7.17
2018-10-21T01:18:02.166Z,6.80
2018-10-21T01:20:30.473Z,6.30
2018-10-21T01:22:58.214Z,6.10
2018-10-21T01:25:26.527Z,6.00
2018-10-21T01:27:55.410Z,6.10
2018-10-21T01:30:23.154Z,5.60
2018-10-21T01:32:52.037Z,6.37
2018-10-21T01:35:20.673Z,6.80
2018-10-21T01:37:49.011Z,6.47
2018-10-21T01:40:21.612Z,6.23
2018-10-21T01:42:49.923Z,6.60
2018-10-21T01:45:18.427Z,5.97
2018-10-21T01:47:47.162Z,6.07
2018-10-21T01:50:15.196Z,5.50
2018-10-21T01:52:43.520Z,5.47
2018-10-21T01:55:11.830Z,5.67
2018-10-21T01:57:40.159Z,5.93
2018-10-21T02:00:09.333Z,5.67
2018-10-21T02:02:37.651Z,6.77
2018-10-21T02:05:05.964Z,6.40
2018-10-21T02:07:34.306Z,6.00
2018-10-21T02:10:02.610Z,6.53
2018-10-21T02:12:32.370Z,6.07
2018-10-21T02:14:59.551Z,6.43
2018-10-21T02:17:27.856Z,6.10
2018-10-21T02:19:56.742Z,6.10
2018-10-21T02:22:24.475Z,6.07
2018-10-21T02:24:52.788Z,6.07
2018-10-21T02:27:21.140Z,6.60
2018-10-21T02:29:49.991Z,6.70
2018-10-21T02:32:18.302Z,6.67
2018-10-21T02:34:46.397Z,6.53
2018-10-21T02:37:15.300Z,6.13
2018-10-21T02:39:44.430Z,5.93
2018-10-21T02:42:12.737Z,6.63
2018-10-21T02:44:41.054Z,6.60
2018-10-21T02:47:08.922Z,8.03
2018-10-21T02:49:37.688Z,9.20
2018-10-21T02:52:06.000Z,8.40
2018-10-21T02:54:34.307Z,7.70
2018-10-21T02:57:02.978Z,8.10
2018-10-21T02:59:31.201Z,6.53
2018-10-21T03:01:59.947Z,7.10
2018-10-21T03:04:28.258Z,7.13
2018-10-21T03:06:55.985Z,6.83
2018-10-21T03:09:25.375Z,7.17
2018-10-21T03:11:53.688Z,6.27
2018-10-21T03:14:22.350Z,5.87
2018-10-21T03:16:50.083Z,6.10
2018-10-21T03:19:18.966Z,6.03
2018-10-21T03:21:47.274Z,5.73
2018-10-21T03:24:15.014Z,5.53
2018-10-21T03:26:43.900Z,5.70
2018-10-21T03:29:11.633Z,5.27
2018-10-21T03:31:39.937Z,5.17
2018-10-21T03:34:08.872Z,5.47
2018-10-21T03:36:37.129Z,5.30
2018-10-21T03:39:05.455Z,5.50
2018-10-21T03:41:33.590Z,5.37
2018-10-21T03:44:01.538Z,5.53
2018-10-21T03:46:30.435Z,9.93
2018-10-21T03:48:58.736Z,7.87
2018-10-21T03:51:27.052Z,11.80
2018-10-21T03:53:54.787Z,5.80
2018-10-21T03:56:23.672Z,5.70
2018-10-21T03:58:51.410Z,5.73
2018-10-21T04:01:19.722Z,5.50
2018-10-21T04:03:48.598Z,5.70
2018-10-21T04:06:16.334Z,5.77
2018-10-21T04:08:45.214Z,5.17
2018-10-21T04:11:12.944Z,5.40
2018-10-21T04:13:41.252Z,6.03
2018-10-21T04:16:10.214Z,5.67
2018-10-21T04:18:37.890Z,5.90
2018-10-21T04:21:06.192Z,5.80
2018-10-21T04:23:34.496Z,5.50
2018-10-21T04:26:02.805Z,5.67
2018-10-21T04:28:31.108Z,5.20
2018-10-21T04:31:00.311Z,5.83
2018-10-21T04:33:28.634Z,7.63
2018-10-21T04:35:56.361Z,8.63
2018-10-21T04:38:26.634Z,10.00
2018-10-21T04:40:54.954Z,8.03
2018-10-21T04:43:23.870Z,6.20
2018-10-21T04:45:51.595Z,5.40
2018-10-21T04:48:21.100Z,5.10
2018-10-21T04:50:49.500Z,5.33
2018-10-21T04:53:17.845Z,5.77
2018-10-21T04:55:45.962Z,5.33
2018-10-21T04:58:14.549Z,5.40
2018-10-21T05:00:42.228Z,5.00
2018-10-21T05:03:11.094Z,5.43
2018-10-21T05:05:38.823Z,5.40
2018-10-21T05:08:07.725Z,9.60
2018-10-21T05:10:35.470Z,8.77
2018-10-21T05:13:03.788Z,7.93
2018-10-21T05:15:32.122Z,7.20
2018-10-21T05:18:00.424Z,5.97
2018-10-21T05:20:28.735Z,6.17
2018-10-21T05:22:57.622Z,6.17
2018-10-21T05:25:25.925Z,6.10
2018-10-21T05:27:53.675Z,6.00
2018-10-21T05:30:22.436Z,5.90
2018-10-21T05:32:52.289Z,5.73
2018-10-21T05:35:20.597Z,5.57
2018-10-21T05:37:48.408Z,5.80
2018-10-21T05:40:16.759Z,8.77
2018-10-21T05:42:45.012Z,26.10
2018-10-21T05:45:13.917Z,8.57
2018-10-21T05:47:42.216Z,6.67
2018-10-21T05:52:14.332Z,9.20
2018-10-21T05:54:42.636Z,16.63
2018-10-21T05:57:11.537Z,18.53
2018-10-21T05:59:39.865Z,12.93
2018-10-21T06:02:08.181Z,9.97
2018-10-21T06:04:35.953Z,6.83
2018-10-21T06:07:05.129Z,5.93
2018-10-21T06:09:33.437Z,7.33
2018-10-21T06:12:01.763Z,13.43
2018-10-21T06:14:30.091Z,10.57
2018-10-21T06:16:57.826Z,5.83
2018-10-21T06:19:27.682Z,5.50
2018-10-21T06:21:55.787Z,5.50
2018-10-21T06:24:24.264Z,5.53
2018-10-21T06:26:52.628Z,7.00
2018-10-21T06:29:21.896Z,6.57
2018-10-21T06:31:50.670Z,6.30
2018-10-21T06:34:18.393Z,7.40
2018-10-21T06:36:47.340Z,7.40
2018-10-21T06:39:15.673Z,8.97
2018-10-21T06:41:44.310Z,6.77
2018-10-21T06:44:12.388Z,7.43
2018-10-21T06:46:40.969Z,7.97
2018-10-21T06:49:09.548Z,10.93
2018-10-21T06:51:37.273Z,27.57
2018-10-21T06:54:06.218Z,9.93
2018-10-21T06:56:34.127Z,9.47
2018-10-21T06:59:02.862Z,9.50
2018-10-21T07:01:31.404Z,8.23
2018-10-21T07:03:59.174Z,6.97
2018-10-21T07:06:28.144Z,8.63
2018-10-21T07:08:56.428Z,7.73
2018-10-21T07:11:24.763Z,6.83
2018-10-21T07:13:53.093Z,6.77
2018-10-21T07:16:21.434Z,8.73
2018-10-21T07:18:50.022Z,17.23
2018-10-21T07:21:17.766Z,23.60
2018-10-21T07:23:47.601Z,12.50
2018-10-21T07:26:16.189Z,9.93
2018-10-21T07:28:44.766Z,9.13
2018-10-21T07:31:12.465Z,15.20
2018-10-21T07:33:41.174Z,10.50
2018-10-21T07:36:09.514Z,9.40
2018-10-21T07:38:37.801Z,8.53
2018-10-21T07:41:07.434Z,10.40
2018-10-21T07:43:35.168Z,10.80
2018-10-21T07:46:04.328Z,14.93
2018-10-21T07:48:32.556Z,14.43
2018-10-21T07:51:01.093Z,25.07
2018-10-21T07:53:30.257Z,17.93
2018-10-21T07:55:57.769Z,31.07
2018-10-21T07:58:27.645Z,15.70
2018-10-21T08:00:56.313Z,14.53
2018-10-21T08:03:24.026Z,14.80
2018-10-21T08:06:12.313Z,15.37
2018-10-21T08:08:40.435Z,13.50
2018-10-21T08:11:09.285Z,16.10
2018-10-21T08:13:37.609Z,14.30
2018-10-21T08:16:05.381Z,19.03
2018-10-21T08:18:33.674Z,14.90
2018-10-21T08:21:02.483Z,18.93
2018-10-21T08:23:31.746Z,40.70
2018-10-21T08:26:00.277Z,13.10
2018-10-21T08:28:29.931Z,12.63
2018-10-21T08:30:57.583Z,12.40
2018-10-21T08:33:25.331Z,11.93
2018-10-21T08:35:53.931Z,10.23
2018-10-21T08:38:22.817Z,11.00
2018-10-21T08:40:50.557Z,11.93
2018-10-21T08:43:18.887Z,13.10
2018-10-21T08:45:47.814Z,13.50
2018-10-21T08:48:16.148Z,7.07
2018-10-21T08:50:44.532Z,3.90
2018-10-21T08:53:12.856Z,5.20
2018-10-21T08:55:40.825Z,2.97
2018-10-21T08:58:09.267Z,19.20
2018-10-21T09:00:38.079Z,13.83
2018-10-21T09:03:06.446Z,19.33
2018-10-21T09:05:34.770Z,9.73
2018-10-21T09:08:03.133Z,7.43
2018-10-21T09:10:31.575Z,15.93
2018-10-21T09:13:00.433Z,14.27
2018-10-21T09:15:28.497Z,10.83
2018-10-21T09:17:56.836Z,8.27
2018-10-21T09:20:25.481Z,6.20
2018-10-21T09:22:53.226Z,5.50
2018-10-21T09:25:22.123Z,4.00
2018-10-21T09:27:50.665Z,4.60
2018-10-21T09:30:18.185Z,4.73
2018-10-21T09:32:46.547Z,3.90
2018-10-21T09:35:14.864Z,2.30
2018-10-21T09:37:43.182Z,3.83
2018-10-21T09:40:11.563Z,4.07
2018-10-21T09:42:39.821Z,3.40
2018-10-21T09:45:08.716Z,3.80
2018-10-21T09:47:37.044Z,3.43
2018-10-21T09:50:05.520Z,3.20
2018-10-21T09:52:34.283Z,3.10
2018-10-21T09:55:02.731Z,6.00
2018-10-21T09:57:31.085Z,4.10
2018-10-21T09:59:59.764Z,3.60
2018-10-21T10:02:33.647Z,4.00
2018-10-21T10:05:02.081Z,7.63
2018-10-21T10:07:30.424Z,15.47
2018-10-21T10:09:58.870Z,9.10
2018-10-21T10:12:26.734Z,5.70
2018-10-21T10:14:55.561Z,3.10
2018-10-21T10:17:23.894Z,6.20
2018-10-21T10:19:52.356Z,17.03
2018-10-21T10:22:20.749Z,7.83
2018-10-21T10:24:49.401Z,4.93
2018-10-21T10:27:17.756Z,4.30
2018-10-21T10:29:46.131Z,3.80
2018-10-21T10:32:14.474Z,3.60
2018-10-21T10:34:43.213Z,4.10
2018-10-21T10:37:11.026Z,4.77
2018-10-21T10:39:39.306Z,4.87
2018-10-21T10:42:07.836Z,4.30
2018-10-21T10:44:36.542Z,3.17
2018-10-21T10:47:04.854Z,4.07
2018-10-21T10:49:33.173Z,2.90
2018-10-21T10:52:01.532Z,3.30
2018-10-21T10:54:29.916Z,2.90
2018-10-21T10:56:58.226Z,3.17
2018-10-21T10:59:26.066Z,4.90
2018-10-21T11:01:54.881Z,4.03
2018-10-21T11:04:23.203Z,3.00
2018-10-21T11:06:51.522Z,3.90
2018-10-21T11:09:19.853Z,3.63
2018-10-21T11:11:47.587Z,4.17
2018-10-21T11:14:15.926Z,3.80
2018-10-21T11:16:44.248Z,3.60
2018-10-21T11:19:14.157Z,8.20
2018-10-21T11:21:42.493Z,23.23
2018-10-21T11:24:10.839Z,20.37
2018-10-21T11:26:39.766Z,25.17
2018-10-21T11:29:07.514Z,16.00
2018-10-21T11:31:36.503Z,8.60
2018-10-21T11:34:04.293Z,7.70
2018-10-21T11:36:33.210Z,4.40
2018-10-21T11:39:01.858Z,3.10
2018-10-21T11:41:30.184Z,12.00
2018-10-21T11:43:58.513Z,45.27
2018-10-21T11:46:26.330Z,7.80
2018-10-21T11:48:54.645Z,5.97
2018-10-21T11:51:23.491Z,5.70
2018-10-21T11:53:51.818Z,26.77
2018-10-21T11:56:20.234Z,13.60
2018-10-21T11:58:48.558Z,8.17
2018-10-21T12:01:16.997Z,7.13
2018-10-21T12:03:45.238Z,5.30
2018-10-21T12:06:13.552Z,4.80
2018-10-21T12:08:41.932Z,4.67
2018-10-21T12:11:10.250Z,5.87
2018-10-21T12:13:38.576Z,6.50
2018-10-21T12:16:07.017Z,20.40
2018-10-21T12:18:34.712Z,18.33
2018-10-21T12:21:03.077Z,14.43
2018-10-21T12:23:32.503Z,20.10
2018-10-21T12:26:00.815Z,18.57
2018-10-21T12:28:29.171Z,19.27
2018-10-21T12:30:57.560Z,14.80
2018-10-21T12:33:25.455Z,7.80
2018-10-21T12:35:54.716Z,6.37
2018-10-21T12:38:23.063Z,4.40
2018-10-21T12:40:51.479Z,5.23
2018-10-21T12:43:19.820Z,5.40
2018-10-21T12:45:48.138Z,2.43
2018-10-21T12:48:16.806Z,4.67
2018-10-21T12:50:45.175Z,10.33
2018-10-21T12:53:13.530Z,5.60
2018-10-21T12:55:41.864Z,7.40
2018-10-21T12:58:10.915Z,15.70
2018-10-21T13:00:39.213Z,4.70
2018-10-21T13:03:07.520Z,10.80
2018-10-21T13:05:35.272Z,11.57
2018-10-21T13:08:04.555Z,13.70
2018-10-21T13:10:32.602Z,8.73
2018-10-21T13:13:01.110Z,12.00
2018-10-21T13:15:29.351Z,5.30
2018-10-21T13:17:57.100Z,8.97
2018-10-21T13:20:25.592Z,8.83
2018-10-21T13:22:54.665Z,5.73
2018-10-21T13:25:23.094Z,9.87
2018-10-21T13:27:51.683Z,4.00
2018-10-21T13:30:20.037Z,2.90
2018-10-21T13:32:47.807Z,6.40
2018-10-21T13:35:16.737Z,7.13
2018-10-21T13:37:45.040Z,3.17
2018-10-21T13:40:12.928Z,3.60
2018-10-21T13:42:41.747Z,4.97
2018-10-21T13:45:10.538Z,4.30
2018-10-21T13:47:38.414Z,3.20
2018-10-21T13:50:07.346Z,3.53
2018-10-21T13:52:35.104Z,4.10
2018-10-21T13:55:23.473Z,3.33
2018-10-21T13:57:51.792Z,2.87
2018-10-21T14:00:20.233Z,7.03
2018-10-21T14:02:48.553Z,8.00
2018-10-21T14:05:16.878Z,5.60
2018-10-21T14:07:45.196Z,3.40
2018-10-21T14:10:13.657Z,4.70
2018-10-21T14:12:41.333Z,4.87
2018-10-21T14:15:09.750Z,6.63
2018-10-21T14:17:38.801Z,3.97
2018-10-21T14:20:06.534Z,4.30
2018-10-21T14:22:34.847Z,3.90
2018-10-21T14:25:03.778Z,33.70
2018-10-21T14:27:31.650Z,21.23
2018-10-21T14:30:00.540Z,6.20
2018-10-21T14:32:28.940Z,5.50
2018-10-21T14:34:57.289Z,4.97
2018-10-21T14:37:25.049Z,4.30
2018-10-21T14:39:53.949Z,5.90
2018-10-21T14:42:22.361Z,7.43
2018-10-21T14:44:50.904Z,11.17
2018-10-21T14:47:18.639Z,9.47
2018-10-21T14:49:47.006Z,9.33
2018-10-21T14:52:16.012Z,9.97
2018-10-21T14:54:44.375Z,9.50
2018-10-21T14:57:12.800Z,15.10
2018-10-21T14:59:41.125Z,6.23
2018-10-21T15:02:08.998Z,7.27
2018-10-21T15:04:39.040Z,10.47
2018-10-21T15:07:06.798Z,7.30
2018-10-21T15:09:35.730Z,10.17
2018-10-21T15:12:03.484Z,10.00
2018-10-21T15:14:32.330Z,8.13
2018-10-21T15:17:00.077Z,11.80
2018-10-21T15:19:29.176Z,9.50
2018-10-21T15:21:56.960Z,13.17
2018-10-21T15:24:25.835Z,14.83
2018-10-21T15:26:54.264Z,13.90
2018-10-21T15:29:22.601Z,20.50
2018-10-21T15:31:51.143Z,21.13
2018-10-21T15:34:19.473Z,22.93
2018-10-21T15:36:47.221Z,28.83
2018-10-21T15:39:16.209Z,23.60
2018-10-21T15:41:43.945Z,38.63
2018-10-21T15:44:12.325Z,66.07
2018-10-21T15:46:41.212Z,44.93
2018-10-21T15:49:09.546Z,200.63
2018-10-21T15:51:37.304Z,67.70
2018-10-21T15:54:06.283Z,104.97
2018-10-21T15:56:34.746Z,127.13
2018-10-21T15:59:02.509Z,88.47
2018-10-21T16:01:31.652Z,82.30
2018-10-21T16:03:59.488Z,62.13
2018-10-21T16:06:27.769Z,28.97
2018-10-21T16:08:56.105Z,22.13
2018-10-21T16:11:25.027Z,21.77
2018-10-21T16:13:53.369Z,19.83
2018-10-21T16:16:21.223Z,24.20
2018-10-21T16:18:49.443Z,30.73
2018-10-21T16:21:18.355Z,19.37
2018-10-21T16:23:46.109Z,14.80
2018-10-21T16:26:15.269Z,13.30
2018-10-21T16:28:43.548Z,10.37
2018-10-21T16:31:11.892Z,8.90
2018-10-21T16:33:40.226Z,9.33
2018-10-21T16:36:08.549Z,10.87
2018-10-21T16:38:36.291Z,11.10
2018-10-21T16:41:04.615Z,10.73
2018-10-21T16:43:33.795Z,9.10
2018-10-21T16:46:01.834Z,17.83
2018-10-21T16:48:30.447Z,7.57
2018-10-21T16:50:58.842Z,8.90
2018-10-21T16:53:27.372Z,10.83
2018-10-21T16:55:55.620Z,9.20
2018-10-21T16:58:24.409Z,11.17
2018-10-21T17:00:52.286Z,10.60
2018-10-21T17:03:21.124Z,7.23
2018-10-21T17:05:49.225Z,50.47
2018-10-21T17:08:18.046Z,12.20
2018-10-21T17:10:45.897Z,11.03
2018-10-21T17:13:14.237Z,9.33
2018-10-21T17:15:43.127Z,8.70
2018-10-21T17:18:11.468Z,10.13
2018-10-21T17:20:39.837Z,9.47
2018-10-21T17:23:08.178Z,10.90
2018-10-21T17:25:36.565Z,9.80
2018-10-21T17:28:04.308Z,9.40
2018-10-21T17:30:33.366Z,9.10
2018-10-21T17:33:01.816Z,10.17
2018-10-21T17:35:29.803Z,7.47
2018-10-21T17:37:58.143Z,9.40
2018-10-21T17:40:26.741Z,8.97
2018-10-21T17:42:55.555Z,9.60
2018-10-21T17:45:23.301Z,20.03
2018-10-21T17:47:51.629Z,11.53
2018-10-21T17:50:20.128Z,12.77
2018-10-21T17:52:48.888Z,11.00
2018-10-21T17:55:16.777Z,11.00
2018-10-21T17:57:45.542Z,11.80
2018-10-21T18:00:13.886Z,18.23
2018-10-21T18:02:41.646Z,16.70
2018-10-21T18:05:10.814Z,16.87
2018-10-21T18:07:39.159Z,12.90
2018-10-21T18:10:07.178Z,18.93
2018-10-21T18:12:35.839Z,12.47
2018-10-21T18:15:04.197Z,17.37
2018-10-21T18:17:32.531Z,15.43
2018-10-21T18:20:01.174Z,14.53
2018-10-21T18:22:29.826Z,13.20
2018-10-21T18:24:59.053Z,12.00
2018-10-21T18:27:26.925Z,14.27
2018-10-21T18:29:55.996Z,12.93
2018-10-21T18:32:24.416Z,11.73
2018-10-21T18:34:52.754Z,12.43
2018-10-21T18:37:20.482Z,23.60
2018-10-21T18:39:48.817Z,26.37
2018-10-21T18:42:17.722Z,12.33
2018-10-21T18:44:45.545Z,16.10
2018-10-21T18:47:14.552Z,12.63
2018-10-21T18:49:43.102Z,11.73
2018-10-21T18:52:11.768Z,12.17
2018-10-21T18:54:40.051Z,12.20
2018-10-21T18:57:08.362Z,12.17
2018-10-21T18:59:36.685Z,12.60
2018-10-21T19:02:05.001Z,19.27
2018-10-21T19:04:33.413Z,13.50
2018-10-21T19:07:02.045Z,13.00
2018-10-21T19:09:30.642Z,12.70
2018-10-21T19:11:59.036Z,13.37
2018-10-21T19:14:26.800Z,15.83
2018-10-21T19:16:55.160Z,62.93
2018-10-21T19:19:24.079Z,11.80
2018-10-21T19:21:52.462Z,12.27
2018-10-21T19:24:20.784Z,11.70
2018-10-21T19:26:49.211Z,21.53
2018-10-21T19:29:17.536Z,12.27
2018-10-21T19:31:47.090Z,10.27
2018-10-21T19:34:15.594Z,9.60
2018-10-21T19:36:45.801Z,14.70
2018-10-21T19:39:15.684Z,31.17
2018-10-21T19:41:44.157Z,9.80
2018-10-21T19:44:12.553Z,12.20
2018-10-21T19:46:41.180Z,10.27
2018-10-21T19:49:09.834Z,9.97
2018-10-21T19:51:38.661Z,10.57
2018-10-21T19:54:07.028Z,9.43
2018-10-21T19:56:35.802Z,9.20
2018-10-21T19:59:05.563Z,9.87
2018-10-21T20:01:35.473Z,27.33
2018-10-21T20:04:03.921Z,10.50
2018-10-21T20:06:33.376Z,9.03
2018-10-21T20:09:01.802Z,9.27
2018-10-21T20:11:30.073Z,12.37
2018-10-21T20:13:58.495Z,8.83
2018-10-21T20:16:27.585Z,10.40
2018-10-21T20:18:55.974Z,8.83
2018-10-21T20:21:24.570Z,10.80
2018-10-21T20:23:52.886Z,9.23
2018-10-21T20:26:21.250Z,18.60
2018-10-21T20:28:49.033Z,9.57
2018-10-21T20:31:17.950Z,12.13
2018-10-21T20:33:45.718Z,10.20
2018-10-21T20:36:14.572Z,9.60
2018-10-21T20:38:42.894Z,8.30
2018-10-21T20:41:10.645Z,10.67
2018-10-21T20:43:38.961Z,9.53
2018-10-21T20:46:07.347Z,9.50
2018-10-21T20:48:36.369Z,7.93
2018-10-21T20:51:05.368Z,7.40
2018-10-21T20:53:33.665Z,7.90
2018-10-21T20:56:01.973Z,8.20
2018-10-21T20:58:29.840Z,7.80
2018-10-21T21:00:58.425Z,7.70
2018-10-21T21:03:27.967Z,7.90
2018-10-21T21:05:56.630Z,7.40
2018-10-21T21:08:26.812Z,7.27
2018-10-21T21:10:54.791Z,7.90
2018-10-21T21:13:25.035Z,8.20
2018-10-21T21:15:53.526Z,7.80
2018-10-21T21:18:22.859Z,6.87
2018-10-21T21:20:50.601Z,7.30
2018-10-21T21:23:18.949Z,6.97
2018-10-21T21:25:47.448Z,7.00
2018-10-21T21:28:16.645Z,6.50
2018-10-21T21:30:46.183Z,7.07
2018-10-21T21:33:14.734Z,6.63
2018-10-21T21:35:43.091Z,6.93
2018-10-21T21:38:11.420Z,8.33
2018-10-21T21:40:39.742Z,9.57
2018-10-21T21:43:08.094Z,6.60
2018-10-21T21:45:36.471Z,7.50
2018-10-21T21:48:05.032Z,6.97
2018-10-21T21:50:32.935Z,7.13
2018-10-21T21:53:01.838Z,7.57
2018-10-21T21:55:31.183Z,6.63
2018-10-21T21:57:58.983Z,6.87
2018-10-21T22:00:28.020Z,7.47
2018-10-21T22:02:56.941Z,7.40
2018-10-21T22:05:25.810Z,6.97
2018-10-21T22:07:56.132Z,6.40
2018-10-21T22:10:24.059Z,6.57
2018-10-21T22:12:54.003Z,6.60
2018-10-21T22:15:22.641Z,6.10
2018-10-21T22:17:51.325Z,6.30
2018-10-21T22:20:19.671Z,7.73
2018-10-21T22:22:48.095Z,9.37
2018-10-21T22:25:17.061Z,7.60
2018-10-21T22:27:45.702Z,9.77
2018-10-21T22:30:13.870Z,8.57
2018-10-21T22:32:42.120Z,8.93
2018-10-21T22:35:09.858Z,6.73
2018-10-21T22:37:38.179Z,7.70
2018-10-21T22:40:06.524Z,6.10
2018-10-21T22:42:35.424Z,6.93
2018-10-21T22:45:03.155Z,6.30
2018-10-21T22:47:32.055Z,6.40
2018-10-21T22:50:00.384Z,6.60
2018-10-21T22:52:28.708Z,6.40
2018-10-21T22:54:57.035Z,6.10
2018-10-21T22:57:25.353Z,5.97
2018-10-21T22:59:53.713Z,5.47
2018-10-21T23:02:21.887Z,5.90
2018-10-21T23:04:50.313Z,5.40
2018-10-21T23:07:18.476Z,6.03
2018-10-21T23:09:46.364Z,6.07
2018-10-21T23:12:15.301Z,5.63
2018-10-21T23:14:43.350Z,5.50
2018-10-21T23:17:11.361Z,5.43
2018-10-21T23:19:40.253Z,5.70
2018-10-21T23:22:08.656Z,5.10
2018-10-21T23:24:36.309Z,5.27
2018-10-21T23:27:05.216Z,5.37
2018-10-21T23:29:32.953Z,5.87
2018-10-21T23:32:01.273Z,6.10
2018-10-21T23:34:29.700Z,5.30
2018-10-21T23:36:57.912Z,5.70
2018-10-21T23:39:26.305Z,5.23
2018-10-21T23:41:55.132Z,5.37
2018-10-21T23:44:23.771Z,5.40
2018-10-21T23:46:51.540Z,5.30
2018-10-21T23:49:19.865Z,5.67
2018-10-21T23:51:48.769Z,6.23
2018-10-21T23:54:16.608Z,6.40
2018-10-21T23:56:44.839Z,5.50
2018-10-21T23:59:13.155Z,5.50
